sensor_id;sensor_type;location;lat;lon;timestamp;P1;durP1;ratioP1;P2;durP2;ratioP2
66020;SDS011;52789;59.980;30.346;2024-01-30T00:00:49;9.37;;;5.90;;
66020;SDS011;52789;59.980;30.346;2024-01-30T00:03:15;15.37;;;5.60;;
66020;SDS011;52789;59.980;30.346;2024-01-30T00:05:41;14.50;;;6.93;;
66020;SDS011;52789;59.980;30.346;2024-01-30T00:08:06;15.37;;;6.27;;
66020;SDS011;52789;59.980;30.346;2024-01-30T00:10:32;20.13;;;6.43;;
66020;SDS011;52789;59.980;30.346;2024-01-30T00:12:57;18.33;;;6.37;;
66020;SDS011;52789;59.980;30.346;2024-01-30T00:15:23;20.80;;;8.50;;
66020;SDS011;52789;59.980;30.346;2024-01-30T00:17:48;19.73;;;6.03;;
66020;SDS011;52789;59.980;30.346;2024-01-30T00:20:14;12.97;;;7.83;;
66020;SDS011;52789;59.980;30.346;2024-01-30T00:22:39;15.77;;;6.03;;
66020;SDS011;52789;59.980;30.346;2024-01-30T00:25:05;11.07;;;6.13;;
66020;SDS011;52789;59.980;30.346;2024-01-30T00:27:30;15.60;;;6.23;;
66020;SDS011;52789;59.980;30.346;2024-01-30T00:29:56;11.93;;;5.63;;
66020;SDS011;52789;59.980;30.346;2024-01-30T00:32:21;12.03;;;7.07;;
66020;SDS011;52789;59.980;30.346;2024-01-30T00:34:48;12.03;;;6.10;;
66020;SDS011;52789;59.980;30.346;2024-01-30T00:37:14;20.80;;;6.30;;
66020;SDS011;52789;59.980;30.346;2024-01-30T00:39:39;19.03;;;7.50;;
66020;SDS011;52789;59.980;30.346;2024-01-30T00:42:05;15.90;;;6.20;;
66020;SDS011;52789;59.980;30.346;2024-01-30T00:44:30;16.30;;;6.70;;
66020;SDS011;52789;59.980;30.346;2024-01-30T00:46:55;13.13;;;5.33;;
66020;SDS011;52789;59.980;30.346;2024-01-30T00:49:21;10.07;;;5.50;;
66020;SDS011;52789;59.980;30.346;2024-01-30T00:51:46;14.63;;;5.97;;
66020;SDS011;52789;59.980;30.346;2024-01-30T00:54:12;14.77;;;6.33;;
66020;SDS011;52789;59.980;30.346;2024-01-30T00:56:37;13.20;;;6.20;;
66020;SDS011;52789;59.980;30.346;2024-01-30T00:59:03;15.63;;;6.20;;
66020;SDS011;52789;59.980;30.346;2024-01-30T01:01:28;9.63;;;5.53;;
66020;SDS011;52789;59.980;30.346;2024-01-30T01:03:54;18.53;;;6.47;;
66020;SDS011;52789;59.980;30.346;2024-01-30T01:06:19;13.93;;;5.93;;
66020;SDS011;52789;59.980;30.346;2024-01-30T01:08:44;16.27;;;7.07;;
66020;SDS011;52789;59.980;30.346;2024-01-30T01:11:10;15.33;;;6.27;;
66020;SDS011;52789;59.980;30.346;2024-01-30T01:13:38;15.47;;;6.37;;
66020;SDS011;52789;59.980;30.346;2024-01-30T01:16:05;18.10;;;6.47;;
66020;SDS011;52789;59.980;30.346;2024-01-30T01:18:32;15.37;;;6.80;;
66020;SDS011;52789;59.980;30.346;2024-01-30T01:21:02;14.03;;;7.10;;
66020;SDS011;52789;59.980;30.346;2024-01-30T01:25:52;13.83;;;5.80;;
66020;SDS011;52789;59.980;30.346;2024-01-30T01:28:18;13.87;;;6.27;;
66020;SDS011;52789;59.980;30.346;2024-01-30T01:30:45;14.23;;;6.07;;
66020;SDS011;52789;59.980;30.346;2024-01-30T01:33:11;15.47;;;6.23;;
66020;SDS011;52789;59.980;30.346;2024-01-30T01:35:39;16.70;;;6.87;;
66020;SDS011;52789;59.980;30.346;2024-01-30T01:38:05;16.07;;;6.10;;
66020;SDS011;52789;59.980;30.346;2024-01-30T01:40:30;16.57;;;7.93;;
66020;SDS011;52789;59.980;30.346;2024-01-30T01:42:56;15.30;;;6.17;;
66020;SDS011;52789;59.980;30.346;2024-01-30T01:45:22;19.77;;;5.87;;
66020;SDS011;52789;59.980;30.346;2024-01-30T01:47:50;11.57;;;5.87;;
66020;SDS011;52789;59.980;30.346;2024-01-30T01:50:16;12.30;;;6.50;;
66020;SDS011;52789;59.980;30.346;2024-01-30T01:52:44;18.47;;;6.77;;
66020;SDS011;52789;59.980;30.346;2024-01-30T01:55:10;15.27;;;7.37;;
66020;SDS011;52789;59.980;30.346;2024-01-30T01:57:37;12.63;;;6.70;;
66020;SDS011;52789;59.980;30.346;2024-01-30T02:00:03;17.13;;;6.37;;
66020;SDS011;52789;59.980;30.346;2024-01-30T02:02:34;14.40;;;6.63;;
66020;SDS011;52789;59.980;30.346;2024-01-30T02:05:01;13.73;;;6.63;;
66020;SDS011;52789;59.980;30.346;2024-01-30T02:07:27;18.50;;;6.40;;
66020;SDS011;52789;59.980;30.346;2024-01-30T02:09:53;14.13;;;6.57;;
66020;SDS011;52789;59.980;30.346;2024-01-30T02:12:19;13.43;;;6.60;;
66020;SDS011;52789;59.980;30.346;2024-01-30T02:14:45;20.00;;;7.20;;
66020;SDS011;52789;59.980;30.346;2024-01-30T02:17:11;13.70;;;6.80;;
66020;SDS011;52789;59.980;30.346;2024-01-30T02:19:38;20.00;;;7.43;;
66020;SDS011;52789;59.980;30.346;2024-01-30T02:22:06;14.02;;;6.00;;
66020;SDS011;52789;59.980;30.346;2024-01-30T02:24:33;16.53;;;6.80;;
66020;SDS011;52789;59.980;30.346;2024-01-30T02:26:59;11.27;;;5.87;;
66020;SDS011;52789;59.980;30.346;2024-01-30T02:29:24;16.47;;;7.27;;
66020;SDS011;52789;59.980;30.346;2024-01-30T02:31:50;15.27;;;5.97;;
66020;SDS011;52789;59.980;30.346;2024-01-30T02:34:16;19.53;;;6.80;;
66020;SDS011;52789;59.980;30.346;2024-01-30T02:36:44;20.33;;;6.83;;
66020;SDS011;52789;59.980;30.346;2024-01-30T02:39:10;13.10;;;6.10;;
66020;SDS011;52789;59.980;30.346;2024-01-30T02:41:36;18.40;;;6.73;;
66020;SDS011;52789;59.980;30.346;2024-01-30T02:44:02;17.13;;;7.83;;
66020;SDS011;52789;59.980;30.346;2024-01-30T02:46:28;14.03;;;6.27;;
66020;SDS011;52789;59.980;30.346;2024-01-30T02:48:53;13.37;;;6.47;;
66020;SDS011;52789;59.980;30.346;2024-01-30T02:51:19;10.60;;;6.03;;
66020;SDS011;52789;59.980;30.346;2024-01-30T02:53:44;15.83;;;6.73;;
66020;SDS011;52789;59.980;30.346;2024-01-30T02:56:10;19.53;;;8.90;;
66020;SDS011;52789;59.980;30.346;2024-01-30T02:58:36;11.40;;;7.00;;
66020;SDS011;52789;59.980;30.346;2024-01-30T03:01:02;13.87;;;6.10;;
66020;SDS011;52789;59.980;30.346;2024-01-30T03:03:28;14.73;;;6.33;;
66020;SDS011;52789;59.980;30.346;2024-01-30T03:05:53;15.30;;;6.50;;
66020;SDS011;52789;59.980;30.346;2024-01-30T03:08:19;15.37;;;6.90;;
66020;SDS011;52789;59.980;30.346;2024-01-30T03:10:45;12.93;;;6.20;;
66020;SDS011;52789;59.980;30.346;2024-01-30T03:13:10;18.23;;;6.83;;
66020;SDS011;52789;59.980;30.346;2024-01-30T03:15:36;21.27;;;7.00;;
66020;SDS011;52789;59.980;30.346;2024-01-30T03:18:02;17.93;;;7.13;;
66020;SDS011;52789;59.980;30.346;2024-01-30T03:20:30;13.63;;;5.87;;
66020;SDS011;52789;59.980;30.346;2024-01-30T03:22:56;16.77;;;6.00;;
66020;SDS011;52789;59.980;30.346;2024-01-30T03:25:22;15.27;;;6.23;;
66020;SDS011;52789;59.980;30.346;2024-01-30T03:27:49;14.73;;;6.73;;
66020;SDS011;52789;59.980;30.346;2024-01-30T03:30:14;18.43;;;7.00;;
66020;SDS011;52789;59.980;30.346;2024-01-30T03:32:40;13.03;;;6.13;;
66020;SDS011;52789;59.980;30.346;2024-01-30T03:35:06;21.53;;;8.30;;
66020;SDS011;52789;59.980;30.346;2024-01-30T03:37:31;13.83;;;6.33;;
66020;SDS011;52789;59.980;30.346;2024-01-30T03:39:57;15.90;;;8.33;;
66020;SDS011;52789;59.980;30.346;2024-01-30T03:42:22;18.57;;;6.70;;
66020;SDS011;52789;59.980;30.346;2024-01-30T03:44:48;18.60;;;6.67;;
66020;SDS011;52789;59.980;30.346;2024-01-30T03:47:13;15.20;;;6.87;;
66020;SDS011;52789;59.980;30.346;2024-01-30T03:49:39;18.97;;;6.73;;
66020;SDS011;52789;59.980;30.346;2024-01-30T03:52:05;19.73;;;7.20;;
66020;SDS011;52789;59.980;30.346;2024-01-30T03:54:30;17.53;;;7.47;;
66020;SDS011;52789;59.980;30.346;2024-01-30T03:56:56;11.73;;;6.13;;
66020;SDS011;52789;59.980;30.346;2024-01-30T03:59:21;17.03;;;6.80;;
66020;SDS011;52789;59.980;30.346;2024-01-30T04:01:51;13.50;;;6.83;;
66020;SDS011;52789;59.980;30.346;2024-01-30T04:04:17;16.75;;;7.13;;
66020;SDS011;52789;59.980;30.346;2024-01-30T04:06:43;16.87;;;6.73;;
66020;SDS011;52789;59.980;30.346;2024-01-30T04:09:09;13.97;;;7.07;;
66020;SDS011;52789;59.980;30.346;2024-01-30T04:11:35;21.47;;;7.93;;
66020;SDS011;52789;59.980;30.346;2024-01-30T04:14:00;15.67;;;6.80;;
66020;SDS011;52789;59.980;30.346;2024-01-30T04:16:26;18.13;;;8.07;;
66020;SDS011;52789;59.980;30.346;2024-01-30T04:18:52;17.23;;;7.77;;
66020;SDS011;52789;59.980;30.346;2024-01-30T04:21:17;15.77;;;7.67;;
66020;SDS011;52789;59.980;30.346;2024-01-30T04:23:43;15.67;;;7.93;;
66020;SDS011;52789;59.980;30.346;2024-01-30T04:26:09;17.17;;;8.67;;
66020;SDS011;52789;59.980;30.346;2024-01-30T04:28:44;13.83;;;7.50;;
66020;SDS011;52789;59.980;30.346;2024-01-30T04:31:20;14.60;;;8.10;;
66020;SDS011;52789;59.980;30.346;2024-01-30T04:33:52;21.97;;;8.23;;
66020;SDS011;52789;59.980;30.346;2024-01-30T04:36:18;14.20;;;7.87;;
66020;SDS011;52789;59.980;30.346;2024-01-30T04:38:43;16.20;;;8.50;;
66020;SDS011;52789;59.980;30.346;2024-01-30T04:41:09;17.93;;;7.97;;
66020;SDS011;52789;59.980;30.346;2024-01-30T04:43:46;16.00;;;7.73;;
66020;SDS011;52789;59.980;30.346;2024-01-30T04:46:11;19.20;;;9.23;;
66020;SDS011;52789;59.980;30.346;2024-01-30T04:48:37;22.53;;;7.50;;
66020;SDS011;52789;59.980;30.346;2024-01-30T04:51:02;13.67;;;7.40;;
66020;SDS011;52789;59.980;30.346;2024-01-30T04:53:32;17.13;;;9.00;;
66020;SDS011;52789;59.980;30.346;2024-01-30T04:55:57;18.65;;;10.32;;
66020;SDS011;52789;59.980;30.346;2024-01-30T04:58:23;15.53;;;7.70;;
66020;SDS011;52789;59.980;30.346;2024-01-30T05:00:48;18.37;;;8.17;;
66020;SDS011;52789;59.980;30.346;2024-01-30T05:03:17;29.50;;;10.45;;
66020;SDS011;52789;59.980;30.346;2024-01-30T05:05:48;16.63;;;7.90;;
66020;SDS011;52789;59.980;30.346;2024-01-30T05:08:14;16.63;;;8.73;;
66020;SDS011;52789;59.980;30.346;2024-01-30T05:10:40;18.80;;;8.73;;
66020;SDS011;52789;59.980;30.346;2024-01-30T05:13:05;12.30;;;7.97;;
66020;SDS011;52789;59.980;30.346;2024-01-30T05:15:31;17.63;;;9.30;;
66020;SDS011;52789;59.980;30.346;2024-01-30T05:17:56;15.47;;;8.70;;
66020;SDS011;52789;59.980;30.346;2024-01-30T05:20:23;20.47;;;10.23;;
66020;SDS011;52789;59.980;30.346;2024-01-30T05:22:49;13.90;;;8.13;;
66020;SDS011;52789;59.980;30.346;2024-01-30T05:25:14;17.30;;;9.10;;
66020;SDS011;52789;59.980;30.346;2024-01-30T05:27:40;14.27;;;7.33;;
66020;SDS011;52789;59.980;30.346;2024-01-30T05:30:06;19.17;;;8.37;;
66020;SDS011;52789;59.980;30.346;2024-01-30T05:32:31;23.43;;;8.80;;
66020;SDS011;52789;59.980;30.346;2024-01-30T05:34:57;15.53;;;9.30;;
66020;SDS011;52789;59.980;30.346;2024-01-30T05:37:22;19.00;;;7.83;;
66020;SDS011;52789;59.980;30.346;2024-01-30T05:39:48;16.47;;;8.67;;
66020;SDS011;52789;59.980;30.346;2024-01-30T05:42:14;15.00;;;8.93;;
66020;SDS011;52789;59.980;30.346;2024-01-30T05:44:42;14.90;;;7.87;;
66020;SDS011;52789;59.980;30.346;2024-01-30T05:47:07;24.13;;;8.97;;
66020;SDS011;52789;59.980;30.346;2024-01-30T05:49:33;19.23;;;8.23;;
66020;SDS011;52789;59.980;30.346;2024-01-30T05:51:58;18.47;;;8.33;;
66020;SDS011;52789;59.980;30.346;2024-01-30T05:54:24;18.03;;;9.13;;
66020;SDS011;52789;59.980;30.346;2024-01-30T05:56:49;13.00;;;7.90;;
66020;SDS011;52789;59.980;30.346;2024-01-30T05:59:14;16.37;;;8.13;;
66020;SDS011;52789;59.980;30.346;2024-01-30T06:01:46;16.10;;;8.97;;
66020;SDS011;52789;59.980;30.346;2024-01-30T06:04:12;16.97;;;8.87;;
66020;SDS011;52789;59.980;30.346;2024-01-30T06:06:38;17.53;;;8.67;;
66020;SDS011;52789;59.980;30.346;2024-01-30T06:09:03;21.00;;;9.97;;
66020;SDS011;52789;59.980;30.346;2024-01-30T06:11:29;15.00;;;8.17;;
66020;SDS011;52789;59.980;30.346;2024-01-30T06:13:54;15.33;;;10.50;;
66020;SDS011;52789;59.980;30.346;2024-01-30T06:16:20;19.67;;;9.63;;
66020;SDS011;52789;59.980;30.346;2024-01-30T06:18:46;21.77;;;8.90;;
66020;SDS011;52789;59.980;30.346;2024-01-30T06:21:14;20.50;;;8.63;;
66020;SDS011;52789;59.980;30.346;2024-01-30T06:23:40;16.67;;;8.07;;
66020;SDS011;52789;59.980;30.346;2024-01-30T06:26:06;23.17;;;8.93;;
66020;SDS011;52789;59.980;30.346;2024-01-30T06:28:32;14.53;;;8.77;;
66020;SDS011;52789;59.980;30.346;2024-01-30T06:30:57;16.20;;;8.03;;
66020;SDS011;52789;59.980;30.346;2024-01-30T06:33:23;14.90;;;8.23;;
66020;SDS011;52789;59.980;30.346;2024-01-30T06:35:48;20.00;;;9.00;;
66020;SDS011;52789;59.980;30.346;2024-01-30T06:38:14;17.73;;;9.07;;
66020;SDS011;52789;59.980;30.346;2024-01-30T06:40:41;17.53;;;9.60;;
66020;SDS011;52789;59.980;30.346;2024-01-30T06:43:07;18.97;;;8.53;;
66020;SDS011;52789;59.980;30.346;2024-01-30T06:45:33;14.93;;;9.00;;
66020;SDS011;52789;59.980;30.346;2024-01-30T06:48:00;17.80;;;9.13;;
66020;SDS011;52789;59.980;30.346;2024-01-30T06:50:25;24.03;;;9.47;;
66020;SDS011;52789;59.980;30.346;2024-01-30T06:52:51;27.87;;;11.17;;
66020;SDS011;52789;59.980;30.346;2024-01-30T06:55:17;20.30;;;9.23;;
66020;SDS011;52789;59.980;30.346;2024-01-30T06:57:43;19.57;;;9.20;;
66020;SDS011;52789;59.980;30.346;2024-01-30T07:00:08;20.53;;;8.63;;
66020;SDS011;52789;59.980;30.346;2024-01-30T07:02:34;14.70;;;8.97;;
66020;SDS011;52789;59.980;30.346;2024-01-30T07:05:00;17.90;;;9.27;;
66020;SDS011;52789;59.980;30.346;2024-01-30T07:07:25;21.43;;;9.53;;
66020;SDS011;52789;59.980;30.346;2024-01-30T07:09:51;15.23;;;10.30;;
66020;SDS011;52789;59.980;30.346;2024-01-30T07:12:22;25.00;;;9.97;;
66020;SDS011;52789;59.980;30.346;2024-01-30T07:14:49;18.92;;;9.77;;
66020;SDS011;52789;59.980;30.346;2024-01-30T07:17:15;19.17;;;11.10;;
66020;SDS011;52789;59.980;30.346;2024-01-30T07:19:41;21.83;;;10.30;;
66020;SDS011;52789;59.980;30.346;2024-01-30T07:22:07;17.90;;;9.03;;
66020;SDS011;52789;59.980;30.346;2024-01-30T07:24:33;18.93;;;9.67;;
66020;SDS011;52789;59.980;30.346;2024-01-30T07:26:59;21.20;;;8.47;;
66020;SDS011;52789;59.980;30.346;2024-01-30T07:29:24;24.63;;;8.40;;
66020;SDS011;52789;59.980;30.346;2024-01-30T07:31:50;15.53;;;8.43;;
66020;SDS011;52789;59.980;30.346;2024-01-30T07:34:15;17.67;;;8.47;;
66020;SDS011;52789;59.980;30.346;2024-01-30T07:36:41;18.33;;;8.83;;
66020;SDS011;52789;59.980;30.346;2024-01-30T07:39:07;18.03;;;10.97;;
66020;SDS011;52789;59.980;30.346;2024-01-30T07:41:32;19.07;;;11.37;;
66020;SDS011;52789;59.980;30.346;2024-01-30T07:43:58;23.20;;;9.30;;
66020;SDS011;52789;59.980;30.346;2024-01-30T07:46:23;12.70;;;8.43;;
66020;SDS011;52789;59.980;30.346;2024-01-30T07:48:49;17.83;;;9.10;;
66020;SDS011;52789;59.980;30.346;2024-01-30T07:51:14;18.30;;;7.83;;
66020;SDS011;52789;59.980;30.346;2024-01-30T07:53:40;18.87;;;8.80;;
66020;SDS011;52789;59.980;30.346;2024-01-30T07:56:05;24.83;;;9.77;;
66020;SDS011;52789;59.980;30.346;2024-01-30T07:58:31;21.47;;;9.77;;
66020;SDS011;52789;59.980;30.346;2024-01-30T08:00:56;23.40;;;8.77;;
66020;SDS011;52789;59.980;30.346;2024-01-30T08:03:23;17.67;;;9.07;;
66020;SDS011;52789;59.980;30.346;2024-01-30T08:05:49;20.50;;;9.50;;
66020;SDS011;52789;59.980;30.346;2024-01-30T08:08:15;16.00;;;8.10;;
66020;SDS011;52789;59.980;30.346;2024-01-30T08:10:40;21.27;;;9.00;;
66020;SDS011;52789;59.980;30.346;2024-01-30T08:13:06;14.83;;;8.40;;
66020;SDS011;52789;59.980;30.346;2024-01-30T08:15:31;18.37;;;8.80;;
66020;SDS011;52789;59.980;30.346;2024-01-30T08:17:57;16.50;;;9.13;;
66020;SDS011;52789;59.980;30.346;2024-01-30T08:20:27;15.57;;;8.10;;
66020;SDS011;52789;59.980;30.346;2024-01-30T08:22:53;14.73;;;8.07;;
66020;SDS011;52789;59.980;30.346;2024-01-30T08:25:18;17.13;;;9.47;;
66020;SDS011;52789;59.980;30.346;2024-01-30T08:27:44;15.97;;;8.10;;
66020;SDS011;52789;59.980;30.346;2024-01-30T08:30:10;16.53;;;8.40;;
66020;SDS011;52789;59.980;30.346;2024-01-30T08:32:35;20.70;;;10.20;;
66020;SDS011;52789;59.980;30.346;2024-01-30T08:35:01;17.97;;;8.57;;
66020;SDS011;52789;59.980;30.346;2024-01-30T08:37:28;24.50;;;9.07;;
66020;SDS011;52789;59.980;30.346;2024-01-30T08:39:54;21.10;;;9.10;;
66020;SDS011;52789;59.980;30.346;2024-01-30T08:42:20;24.67;;;10.60;;
66020;SDS011;52789;59.980;30.346;2024-01-30T08:44:48;17.77;;;9.93;;
66020;SDS011;52789;59.980;30.346;2024-01-30T08:47:14;15.50;;;8.73;;
66020;SDS011;52789;59.980;30.346;2024-01-30T08:49:42;18.30;;;8.80;;
66020;SDS011;52789;59.980;30.346;2024-01-30T08:52:09;20.87;;;9.20;;
66020;SDS011;52789;59.980;30.346;2024-01-30T08:54:37;20.83;;;10.27;;
66020;SDS011;52789;59.980;30.346;2024-01-30T08:57:03;22.13;;;9.20;;
66020;SDS011;52789;59.980;30.346;2024-01-30T08:59:29;23.33;;;8.67;;
66020;SDS011;52789;59.980;30.346;2024-01-30T09:01:55;18.07;;;9.10;;
66020;SDS011;52789;59.980;30.346;2024-01-30T09:04:22;24.20;;;9.10;;
66020;SDS011;52789;59.980;30.346;2024-01-30T09:06:48;23.70;;;11.20;;
66020;SDS011;52789;59.980;30.346;2024-01-30T09:09:14;24.13;;;10.57;;
66020;SDS011;52789;59.980;30.346;2024-01-30T09:11:39;21.00;;;10.07;;
66020;SDS011;52789;59.980;30.346;2024-01-30T09:14:05;21.37;;;10.63;;
66020;SDS011;52789;59.980;30.346;2024-01-30T09:16:31;22.30;;;10.03;;
66020;SDS011;52789;59.980;30.346;2024-01-30T09:18:56;14.40;;;9.00;;
66020;SDS011;52789;59.980;30.346;2024-01-30T09:21:22;25.43;;;9.73;;
66020;SDS011;52789;59.980;30.346;2024-01-30T09:23:48;20.77;;;10.13;;
66020;SDS011;52789;59.980;30.346;2024-01-30T09:26:14;18.87;;;10.47;;
66020;SDS011;52789;59.980;30.346;2024-01-30T09:28:39;22.63;;;10.27;;
66020;SDS011;52789;59.980;30.346;2024-01-30T09:31:11;22.27;;;10.50;;
66020;SDS011;52789;59.980;30.346;2024-01-30T09:33:37;21.57;;;10.23;;
66020;SDS011;52789;59.980;30.346;2024-01-30T09:36:04;16.67;;;9.43;;
66020;SDS011;52789;59.980;30.346;2024-01-30T09:38:30;22.07;;;9.97;;
66020;SDS011;52789;59.980;30.346;2024-01-30T09:40:56;14.33;;;9.20;;
66020;SDS011;52789;59.980;30.346;2024-01-30T09:43:28;18.67;;;9.60;;
66020;SDS011;52789;59.980;30.346;2024-01-30T09:45:58;18.97;;;9.77;;
66020;SDS011;52789;59.980;30.346;2024-01-30T09:48:25;24.47;;;10.20;;
66020;SDS011;52789;59.980;30.346;2024-01-30T09:50:52;20.43;;;10.87;;
66020;SDS011;52789;59.980;30.346;2024-01-30T09:53:18;27.77;;;10.13;;
66020;SDS011;52789;59.980;30.346;2024-01-30T09:55:44;17.90;;;10.03;;
66020;SDS011;52789;59.980;30.346;2024-01-30T09:58:11;20.70;;;9.80;;
66020;SDS011;52789;59.980;30.346;2024-01-30T10:00:38;19.53;;;12.23;;
66020;SDS011;52789;59.980;30.346;2024-01-30T10:03:04;19.87;;;10.47;;
66020;SDS011;52789;59.980;30.346;2024-01-30T10:05:30;15.33;;;9.43;;
66020;SDS011;52789;59.980;30.346;2024-01-30T10:10:24;20.07;;;8.60;;
66020;SDS011;52789;59.980;30.346;2024-01-30T10:12:49;20.03;;;9.53;;
66020;SDS011;52789;59.980;30.346;2024-01-30T10:15:15;18.13;;;9.43;;
66020;SDS011;52789;59.980;30.346;2024-01-30T10:17:42;18.13;;;9.53;;
66020;SDS011;52789;59.980;30.346;2024-01-30T10:20:08;17.33;;;9.40;;
66020;SDS011;52789;59.980;30.346;2024-01-30T10:22:34;18.70;;;10.00;;
66020;SDS011;52789;59.980;30.346;2024-01-30T10:25:00;21.53;;;8.50;;
66020;SDS011;52789;59.980;30.346;2024-01-30T10:27:26;22.63;;;8.37;;
66020;SDS011;52789;59.980;30.346;2024-01-30T10:29:52;20.23;;;10.63;;
66020;SDS011;52789;59.980;30.346;2024-01-30T10:32:18;17.53;;;8.83;;
66020;SDS011;52789;59.980;30.346;2024-01-30T10:34:44;15.37;;;9.10;;
66020;SDS011;52789;59.980;30.346;2024-01-30T10:37:10;17.03;;;9.47;;
66020;SDS011;52789;59.980;30.346;2024-01-30T10:39:40;19.63;;;9.83;;
66020;SDS011;52789;59.980;30.346;2024-01-30T10:42:06;17.53;;;9.80;;
66020;SDS011;52789;59.980;30.346;2024-01-30T10:47:34;19.07;;;9.33;;
66020;SDS011;52789;59.980;30.346;2024-01-30T10:50:01;20.42;;;9.25;;
66020;SDS011;52789;59.980;30.346;2024-01-30T10:52:28;13.10;;;7.77;;
66020;SDS011;52789;59.980;30.346;2024-01-30T10:54:55;17.30;;;9.97;;
66020;SDS011;52789;59.980;30.346;2024-01-30T10:57:24;24.07;;;8.70;;
66020;SDS011;52789;59.980;30.346;2024-01-30T10:59:57;21.57;;;9.00;;
66020;SDS011;52789;59.980;30.346;2024-01-30T11:02:24;16.80;;;9.90;;
66020;SDS011;52789;59.980;30.346;2024-01-30T11:04:55;21.60;;;10.20;;
66020;SDS011;52789;59.980;30.346;2024-01-30T11:07:26;15.33;;;8.63;;
66020;SDS011;52789;59.980;30.346;2024-01-30T11:09:53;29.73;;;11.20;;
66020;SDS011;52789;59.980;30.346;2024-01-30T11:12:32;13.33;;;9.00;;
66020;SDS011;52789;59.980;30.346;2024-01-30T11:22:49;21.92;;;9.85;;
66020;SDS011;52789;59.980;30.346;2024-01-30T11:25:16;19.55;;;9.20;;
66020;SDS011;52789;59.980;30.346;2024-01-30T11:27:44;16.13;;;9.20;;
66020;SDS011;52789;59.980;30.346;2024-01-30T11:30:11;21.73;;;10.60;;
66020;SDS011;52789;59.980;30.346;2024-01-30T11:35:37;22.07;;;10.43;;
66020;SDS011;52789;59.980;30.346;2024-01-30T11:38:06;23.07;;;11.77;;
66020;SDS011;52789;59.980;30.346;2024-01-30T11:40:33;16.63;;;9.53;;
66020;SDS011;52789;59.980;30.346;2024-01-30T11:43:00;17.20;;;10.43;;
66020;SDS011;52789;59.980;30.346;2024-01-30T11:45:28;22.00;;;9.47;;
66020;SDS011;52789;59.980;30.346;2024-01-30T11:47:54;16.90;;;8.13;;
66020;SDS011;52789;59.980;30.346;2024-01-30T11:50:19;19.73;;;9.37;;
66020;SDS011;52789;59.980;30.346;2024-01-30T11:52:45;23.90;;;11.10;;
66020;SDS011;52789;59.980;30.346;2024-01-30T11:55:11;16.53;;;8.60;;
66020;SDS011;52789;59.980;30.346;2024-01-30T11:57:38;18.47;;;7.97;;
66020;SDS011;52789;59.980;30.346;2024-01-30T12:00:04;14.17;;;8.87;;
66020;SDS011;52789;59.980;30.346;2024-01-30T12:02:41;14.00;;;9.23;;
66020;SDS011;52789;59.980;30.346;2024-01-30T12:05:07;19.60;;;8.67;;
66020;SDS011;52789;59.980;30.346;2024-01-30T12:07:34;20.53;;;9.97;;
66020;SDS011;52789;59.980;30.346;2024-01-30T12:09:59;19.80;;;8.50;;
66020;SDS011;52789;59.980;30.346;2024-01-30T12:12:26;14.77;;;9.03;;
66020;SDS011;52789;59.980;30.346;2024-01-30T12:14:53;15.43;;;8.67;;
66020;SDS011;52789;59.980;30.346;2024-01-30T12:20:02;18.73;;;8.63;;
66020;SDS011;52789;59.980;30.346;2024-01-30T12:22:36;15.10;;;8.00;;
66020;SDS011;52789;59.980;30.346;2024-01-30T12:25:24;19.37;;;7.90;;
66020;SDS011;52789;59.980;30.346;2024-01-30T12:27:50;14.70;;;7.80;;
66020;SDS011;52789;59.980;30.346;2024-01-30T12:30:16;12.80;;;7.17;;
66020;SDS011;52789;59.980;30.346;2024-01-30T12:32:45;15.30;;;10.90;;
66020;SDS011;52789;59.980;30.346;2024-01-30T12:35:12;25.17;;;8.47;;
66020;SDS011;52789;59.980;30.346;2024-01-30T12:37:42;18.90;;;8.07;;
66020;SDS011;52789;59.980;30.346;2024-01-30T12:40:10;23.40;;;9.07;;
66020;SDS011;52789;59.980;30.346;2024-01-30T12:42:38;16.23;;;9.57;;
66020;SDS011;52789;59.980;30.346;2024-01-30T12:45:04;18.50;;;8.07;;
66020;SDS011;52789;59.980;30.346;2024-01-30T12:47:30;20.57;;;7.90;;
66020;SDS011;52789;59.980;30.346;2024-01-30T12:49:58;19.90;;;9.23;;
66020;SDS011;52789;59.980;30.346;2024-01-30T12:52:28;19.83;;;9.50;;
66020;SDS011;52789;59.980;30.346;2024-01-30T12:54:54;14.03;;;8.17;;
66020;SDS011;52789;59.980;30.346;2024-01-30T12:57:20;17.43;;;8.23;;
66020;SDS011;52789;59.980;30.346;2024-01-30T12:59:45;21.83;;;9.40;;
66020;SDS011;52789;59.980;30.346;2024-01-30T13:02:14;18.10;;;9.57;;
66020;SDS011;52789;59.980;30.346;2024-01-30T13:04:40;14.30;;;8.40;;
66020;SDS011;52789;59.980;30.346;2024-01-30T13:07:06;15.43;;;9.47;;
66020;SDS011;52789;59.980;30.346;2024-01-30T13:09:31;14.03;;;8.60;;
66020;SDS011;52789;59.980;30.346;2024-01-30T13:11:57;18.23;;;9.47;;
66020;SDS011;52789;59.980;30.346;2024-01-30T13:14:24;23.03;;;9.90;;
66020;SDS011;52789;59.980;30.346;2024-01-30T13:16:50;21.23;;;10.03;;
66020;SDS011;52789;59.980;30.346;2024-01-30T13:19:17;15.63;;;9.70;;
66020;SDS011;52789;59.980;30.346;2024-01-30T13:21:43;19.23;;;9.80;;
66020;SDS011;52789;59.980;30.346;2024-01-30T13:24:09;16.87;;;9.00;;
66020;SDS011;52789;59.980;30.346;2024-01-30T13:26:35;16.80;;;10.10;;
66020;SDS011;52789;59.980;30.346;2024-01-30T13:29:01;19.80;;;9.93;;
66020;SDS011;52789;59.980;30.346;2024-01-30T13:31:27;20.87;;;10.40;;
66020;SDS011;52789;59.980;30.346;2024-01-30T13:33:53;21.77;;;11.33;;
66020;SDS011;52789;59.980;30.346;2024-01-30T13:36:19;19.07;;;10.87;;
66020;SDS011;52789;59.980;30.346;2024-01-30T13:38:45;18.63;;;10.53;;
66020;SDS011;52789;59.980;30.346;2024-01-30T13:41:11;22.23;;;10.40;;
66020;SDS011;52789;59.980;30.346;2024-01-30T13:43:36;22.03;;;11.20;;
66020;SDS011;52789;59.980;30.346;2024-01-30T13:46:02;21.77;;;11.33;;
66020;SDS011;52789;59.980;30.346;2024-01-30T13:48:28;20.67;;;11.10;;
66020;SDS011;52789;59.980;30.346;2024-01-30T13:50:54;22.50;;;11.60;;
66020;SDS011;52789;59.980;30.346;2024-01-30T13:53:20;20.07;;;10.67;;
66020;SDS011;52789;59.980;30.346;2024-01-30T13:55:46;21.93;;;11.13;;
66020;SDS011;52789;59.980;30.346;2024-01-30T13:58:15;20.98;;;11.27;;
66020;SDS011;52789;59.980;30.346;2024-01-30T14:00:40;22.20;;;11.20;;
66020;SDS011;52789;59.980;30.346;2024-01-30T14:03:06;22.60;;;11.83;;
66020;SDS011;52789;59.980;30.346;2024-01-30T14:05:32;16.37;;;9.13;;
66020;SDS011;52789;59.980;30.346;2024-01-30T14:07:57;22.63;;;10.57;;
66020;SDS011;52789;59.980;30.346;2024-01-30T14:10:24;23.60;;;10.47;;
66020;SDS011;52789;59.980;30.346;2024-01-30T14:12:50;19.97;;;11.33;;
66020;SDS011;52789;59.980;30.346;2024-01-30T14:15:16;18.47;;;10.27;;
66020;SDS011;52789;59.980;30.346;2024-01-30T14:17:45;21.17;;;10.80;;
66020;SDS011;52789;59.980;30.346;2024-01-30T14:20:15;22.83;;;10.20;;
66020;SDS011;52789;59.980;30.346;2024-01-30T14:22:42;18.17;;;10.17;;
66020;SDS011;52789;59.980;30.346;2024-01-30T14:25:08;22.63;;;10.37;;
66020;SDS011;52789;59.980;30.346;2024-01-30T14:27:34;21.17;;;11.07;;
66020;SDS011;52789;59.980;30.346;2024-01-30T14:30:00;20.50;;;10.77;;
66020;SDS011;52789;59.980;30.346;2024-01-30T14:32:26;22.07;;;10.10;;
66020;SDS011;52789;59.980;30.346;2024-01-30T14:34:51;21.57;;;12.17;;